Harbin, China
Current Conditions -  °F | °C
As of 5:00 AM on Monday 24 Nov 2014 (Local Time) from ZYHB Reporting Station
Clear Clear  
Wind Chill:   Ceiling: Unl
Heat Index: 14°   Visibility: 6mi
Dew Point:   Wind: 7mph
Humidity: 79%   Direction: 280°W
Pressure: 30.27"   Gusts: NA
Location:  45.75°N, 126.65°E
Report Text: ZYHB 232100Z 28003MPS CAVOK M10/M13 Q1025 NOSIG
Loading
Personal Weather Stations






























Interactive Weather Map New forecast layout! Learn more

10-Day Weather Forecast

Advertisements
Track Severe Weather on mobile